createdAt,value
2019-02-11T00:00:57.102Z,43.59
2019-02-11T00:01:57.577Z,43.59
2019-02-11T00:02:56.969Z,43.59
2019-02-11T00:04:00.315Z,43.57
2019-02-11T00:04:57.722Z,43.59
2019-02-11T00:05:58.476Z,43.59
2019-02-11T00:06:57.199Z,43.58
2019-02-11T00:07:57.024Z,43.62
2019-02-11T00:08:57.087Z,43.59
2019-02-11T00:09:57.134Z,43.62
2019-02-11T00:10:57.335Z,43.61
2019-02-11T00:11:57.036Z,43.61
2019-02-11T00:12:57.191Z,43.59
2019-02-11T00:13:57.499Z,43.6
2019-02-11T00:14:56.963Z,43.58
2019-02-11T00:15:57.087Z,43.53
2019-02-11T00:16:57.083Z,43.63
2019-02-11T00:17:56.969Z,43.59
2019-02-11T00:18:56.936Z,43.6
2019-02-11T00:19:57.186Z,43.6
2019-02-11T00:20:57.367Z,43.56
2019-02-11T00:21:57.203Z,43.64
2019-02-11T00:22:57.520Z,43.61
2019-02-11T00:23:57.942Z,43.59
2019-02-11T00:24:57.803Z,43.63
2019-02-11T00:25:57.139Z,43.63
2019-02-11T00:26:57.471Z,43.61
2019-02-11T00:27:56.827Z,43.6
2019-02-11T00:28:57.467Z,43.61
2019-02-11T00:29:57.411Z,43.59
2019-02-11T00:30:56.915Z,43.57
2019-02-11T00:31:57.912Z,43.58
2019-02-11T00:32:58.540Z,43.57
2019-02-11T00:33:57.216Z,43.6
2019-02-11T00:34:58.362Z,43.63
2019-02-11T00:35:58.529Z,43.64
2019-02-11T00:36:57.123Z,43.64
2019-02-11T00:37:58.980Z,43.56
2019-02-11T00:38:57.040Z,43.6
2019-02-11T00:39:56.864Z,43.6
2019-02-11T00:40:57.555Z,43.56
2019-02-11T00:41:58.793Z,43.59
2019-02-11T00:42:57.217Z,43.6
2019-02-11T00:43:57.682Z,43.6
2019-02-11T00:44:56.882Z,43.6
2019-02-11T00:45:57.106Z,43.59
2019-02-11T00:46:56.679Z,43.59
2019-02-11T00:47:56.907Z,43.57
2019-02-11T00:48:57.128Z,43.59
2019-02-11T00:49:57.069Z,43.55
2019-02-11T00:50:57.426Z,43.57
2019-02-11T00:51:57.827Z,43.55
2019-02-11T00:52:57.234Z,43.56
2019-02-11T00:53:58.836Z,43.56
2019-02-11T00:54:57.280Z,43.62
2019-02-11T00:55:57.269Z,43.58
2019-02-11T00:56:57.157Z,43.56
2019-02-11T00:57:57.769Z,43.54
2019-02-11T00:58:57.675Z,43.51
2019-02-11T00:59:58.935Z,43.54
2019-02-11T01:00:57.413Z,43.56
2019-02-11T01:01:56.986Z,43.58
2019-02-11T01:02:57.245Z,43.6
2019-02-11T01:03:56.909Z,43.59
2019-02-11T01:04:56.894Z,43.6
2019-02-11T01:05:57.242Z,43.57
2019-02-11T01:06:57.224Z,43.54
2019-02-11T01:07:57.666Z,43.58
2019-02-11T01:08:56.916Z,43.53
2019-02-11T01:09:57.400Z,43.55
2019-02-11T01:10:57.583Z,43.55
2019-02-11T01:11:56.942Z,43.55
2019-02-11T01:12:57.773Z,43.55
2019-02-11T01:13:57.485Z,43.59
2019-02-11T01:14:57.796Z,43.6
2019-02-11T01:15:57.515Z,43.53
2019-02-11T01:16:57.282Z,43.57
2019-02-11T01:17:57.020Z,43.56
2019-02-11T01:18:57.865Z,43.57
2019-02-11T01:19:57.357Z,43.57
2019-02-11T01:20:57.131Z,43.57
2019-02-11T01:21:58.703Z,43.57
2019-02-11T01:22:57.468Z,43.57
2019-02-11T01:23:56.994Z,43.51
2019-02-11T01:24:56.697Z,43.5
2019-02-11T01:25:57.009Z,43.58
2019-02-11T01:26:57.492Z,43.56
2019-02-11T01:27:57.281Z,43.55
2019-02-11T01:28:57.214Z,43.55
2019-02-11T01:29:56.950Z,43.52
2019-02-11T01:30:57.409Z,43.54
2019-02-11T01:31:57.504Z,43.54
2019-02-11T01:32:56.899Z,43.5
2019-02-11T01:33:57.272Z,43.5
2019-02-11T01:34:57.418Z,43.51
2019-02-11T01:35:57.217Z,43.5
2019-02-11T01:36:57.256Z,43.52
2019-02-11T01:37:57.080Z,43.53
2019-02-11T01:38:57.464Z,43.49
2019-02-11T01:39:57.271Z,43.47
2019-02-11T01:40:57.369Z,43.52
2019-02-11T01:41:57.569Z,43.48
2019-02-11T01:42:57.525Z,43.47
2019-02-11T01:43:56.777Z,43.46
2019-02-11T01:44:57.384Z,43.5
2019-02-11T01:45:57.901Z,43.48
2019-02-11T01:46:56.882Z,43.51
2019-02-11T01:47:58.896Z,43.48
2019-02-11T01:48:57.041Z,43.48
2019-02-11T01:49:56.959Z,43.47
2019-02-11T01:50:58.923Z,43.5
2019-02-11T01:51:56.738Z,43.48
2019-02-11T01:52:56.798Z,43.52
2019-02-11T01:53:56.698Z,43.53
2019-02-11T01:54:57.190Z,43.5
2019-02-11T01:55:57.027Z,43.53
2019-02-11T01:56:56.903Z,43.5
2019-02-11T01:57:57.269Z,43.51
2019-02-11T01:58:57.263Z,43.51
2019-02-11T01:59:56.844Z,43.5
2019-02-11T02:00:57.091Z,43.5
2019-02-11T02:01:57.036Z,43.56
2019-02-11T02:02:57.009Z,43.5
2019-02-11T02:03:57.391Z,43.52
2019-02-11T02:04:57.035Z,43.46
2019-02-11T02:05:57.355Z,43.52
2019-02-11T02:06:57.994Z,43.54
2019-02-11T02:07:58.106Z,43.56
2019-02-11T02:08:57.386Z,43.5
2019-02-11T02:09:56.925Z,43.56
2019-02-11T02:10:56.926Z,43.54
2019-02-11T02:11:57.513Z,43.52
2019-02-11T02:12:58.779Z,43.5
2019-02-11T02:13:57.070Z,43.5
2019-02-11T02:14:56.889Z,43.52
2019-02-11T02:15:57.506Z,43.53
2019-02-11T02:16:57.451Z,43.5
2019-02-11T02:17:57.259Z,43.49
2019-02-11T02:18:56.914Z,43.56
2019-02-11T02:19:57.331Z,43.54
2019-02-11T02:20:57.261Z,43.5
2019-02-11T02:21:57.571Z,43.53
2019-02-11T02:22:57.059Z,43.53
2019-02-11T02:23:56.874Z,43.52
2019-02-11T02:24:58.909Z,43.5
2019-02-11T02:25:57.441Z,43.55
2019-02-11T02:26:56.981Z,43.54
2019-02-11T02:27:57.026Z,43.51
2019-02-11T02:28:57.040Z,43.52
2019-02-11T02:29:57.629Z,43.53
2019-02-11T02:30:57.073Z,43.53
2019-02-11T02:31:56.836Z,43.53
2019-02-11T02:32:57.163Z,43.53
2019-02-11T02:33:57.378Z,43.51
2019-02-11T02:34:57.188Z,43.53
2019-02-11T02:35:57.758Z,43.53
2019-02-11T02:36:56.872Z,43.49
2019-02-11T02:37:57.289Z,43.57
2019-02-11T02:38:57.519Z,43.55
2019-02-11T02:39:57.012Z,43.54
2019-02-11T02:40:56.986Z,43.5
2019-02-11T02:41:56.799Z,43.5
2019-02-11T02:42:56.976Z,43.5
2019-02-11T02:43:57.566Z,43.52
2019-02-11T02:44:57.271Z,43.5
2019-02-11T02:45:57.485Z,43.51
2019-02-11T02:46:57.236Z,43.49
2019-02-11T02:47:56.956Z,43.47
2019-02-11T02:48:58.191Z,43.56
2019-02-11T02:49:58.001Z,43.5
2019-02-11T02:50:57.496Z,43.52
2019-02-11T02:51:57.191Z,43.49
2019-02-11T02:52:57.100Z,43.46
2019-02-11T02:53:57.816Z,43.47
2019-02-11T02:54:56.729Z,43.52
2019-02-11T02:55:58.814Z,43.49
2019-02-11T02:56:57.435Z,43.53
2019-02-11T02:57:58.811Z,43.5
2019-02-11T02:58:57.539Z,43.5
2019-02-11T02:59:57.218Z,43.47
2019-02-11T03:00:57.288Z,43.52
2019-02-11T03:01:56.992Z,43.48
2019-02-11T03:02:57.159Z,43.52
2019-02-11T03:03:56.791Z,43.5
2019-02-11T03:04:57.030Z,43.48
2019-02-11T03:05:57.418Z,43.5
2019-02-11T03:06:58.727Z,43.52
2019-02-11T03:07:57.754Z,43.5
2019-02-11T03:08:57.356Z,43.5
2019-02-11T03:09:57.716Z,43.5
2019-02-11T03:10:56.901Z,43.53
2019-02-11T03:11:57.042Z,43.54
2019-02-11T03:12:57.549Z,43.5
2019-02-11T03:14:06.892Z,43.53
2019-02-11T03:14:57.123Z,43.49
2019-02-11T03:15:57.076Z,43.49
2019-02-11T03:16:57.441Z,43.49
2019-02-11T03:17:57.063Z,43.45
2019-02-11T03:18:57.428Z,43.45
2019-02-11T03:19:56.779Z,43.49
2019-02-11T03:20:56.926Z,43.48
2019-02-11T03:21:59.067Z,43.5
2019-02-11T03:22:58.777Z,43.51
2019-02-11T03:23:57.975Z,43.45
2019-02-11T03:24:57.159Z,43.48
2019-02-11T03:25:57.527Z,43.49
2019-02-11T03:26:57.029Z,43.48
2019-02-11T03:27:56.855Z,43.51
2019-02-11T03:28:57.094Z,43.45
2019-02-11T03:29:57.044Z,43.49
2019-02-11T03:30:57.017Z,43.47
2019-02-11T03:32:00.526Z,43.49
2019-02-11T03:32:56.882Z,43.49
2019-02-11T03:33:57.053Z,43.53
2019-02-11T03:34:57.713Z,43.49
2019-02-11T03:35:56.761Z,43.46
2019-02-11T03:36:57.091Z,43.49
2019-02-11T03:37:57.090Z,43.46
2019-02-11T03:38:56.850Z,43.5
2019-02-11T03:39:56.980Z,43.48
2019-02-11T03:40:57.085Z,43.49
2019-02-11T03:41:57.149Z,43.52
2019-02-11T03:42:57.155Z,43.51
2019-02-11T03:43:58.721Z,43.47
2019-02-11T03:44:56.980Z,43.46
2019-02-11T03:45:57.262Z,43.47
2019-02-11T03:46:56.879Z,43.45
2019-02-11T03:47:57.671Z,43.46
2019-02-11T03:48:57.334Z,43.47
2019-02-11T03:49:57.025Z,43.47
2019-02-11T03:50:56.988Z,43.47
2019-02-11T03:51:57.213Z,43.48
2019-02-11T03:52:58.436Z,43.48
2019-02-11T03:53:57.500Z,43.5
2019-02-11T03:54:57.128Z,43.49
2019-02-11T03:55:57.186Z,43.44
2019-02-11T03:56:58.836Z,43.44
2019-02-11T03:57:57.251Z,43.49
2019-02-11T03:58:56.997Z,43.48
2019-02-11T03:59:56.981Z,43.47
2019-02-11T04:00:57.214Z,43.42
2019-02-11T04:01:58.829Z,43.42
2019-02-11T04:02:57.185Z,43.45
2019-02-11T04:03:56.876Z,43.43
2019-02-11T04:04:56.985Z,43.43
2019-02-11T04:05:56.803Z,43.39
2019-02-11T04:06:57.847Z,43.44
2019-02-11T04:07:57.216Z,43.45
2019-02-11T04:08:57.027Z,43.45
2019-02-11T04:09:56.846Z,43.41
2019-02-11T04:10:57.346Z,43.47
2019-02-11T04:11:57.599Z,43.43
2019-02-11T04:12:57.396Z,43.47
2019-02-11T04:13:57.017Z,43.43
2019-02-11T04:14:57.116Z,43.46
2019-02-11T04:15:57.324Z,43.45
2019-02-11T04:16:56.763Z,43.46
2019-02-11T04:17:56.964Z,43.45
2019-02-11T04:18:57.285Z,43.44
2019-02-11T04:19:56.921Z,43.46
2019-02-11T04:20:57.259Z,43.48
2019-02-11T04:21:56.823Z,43.47
2019-02-11T04:22:56.891Z,43.46
2019-02-11T04:23:57.234Z,43.46
2019-02-11T04:24:58.375Z,43.45
2019-02-11T04:25:57.461Z,43.48
2019-02-11T04:26:57.312Z,43.45
2019-02-11T04:27:57.522Z,43.52
2019-02-11T04:28:57.196Z,43.47
2019-02-11T04:29:57.147Z,43.46
2019-02-11T04:30:56.998Z,43.43
2019-02-11T04:31:57.377Z,43.47
2019-02-11T04:32:57.165Z,43.42
2019-02-11T04:33:58.557Z,43.46
2019-02-11T04:34:57.728Z,43.43
2019-02-11T04:35:57.223Z,43.46
2019-02-11T04:36:56.937Z,43.47
2019-02-11T04:37:56.979Z,43.46
2019-02-11T04:38:57.230Z,43.46
2019-02-11T04:39:57.474Z,43.43
2019-02-11T04:40:57.772Z,43.45
2019-02-11T04:41:57.046Z,43.38
2019-02-11T04:42:57.293Z,43.41
2019-02-11T04:43:56.741Z,43.37
2019-02-11T04:44:57.786Z,43.38
2019-02-11T04:45:56.867Z,43.4
2019-02-11T04:46:57.199Z,43.39
2019-02-11T04:47:57.027Z,43.4
2019-02-11T04:48:57.285Z,43.39
2019-02-11T04:49:56.941Z,43.43
2019-02-11T04:50:57.141Z,43.42
2019-02-11T04:51:59.271Z,43.39
2019-02-11T04:52:57.534Z,43.37
2019-02-11T04:53:57.847Z,43.38
2019-02-11T04:54:56.753Z,43.36
2019-02-11T04:55:57.328Z,43.32
2019-02-11T04:56:58.675Z,43.3
2019-02-11T04:57:56.719Z,43.29
2019-02-11T04:58:57.360Z,43.34
2019-02-11T04:59:57.486Z,43.27
2019-02-11T05:00:58.752Z,43.27
2019-02-11T05:01:56.945Z,43.28
2019-02-11T05:02:57.407Z,43.26
2019-02-11T05:03:57.394Z,43.29
2019-02-11T05:04:57.003Z,43.22
2019-02-11T05:05:57.034Z,43.22
2019-02-11T05:06:57.238Z,43.23
2019-02-11T05:07:57.793Z,43.23
2019-02-11T05:08:57.647Z,43.17
2019-02-11T05:09:57.677Z,43.18
2019-02-11T05:10:56.742Z,43.14
2019-02-11T05:11:57.406Z,43.11
2019-02-11T05:12:56.893Z,43.12
2019-02-11T05:13:57.131Z,43.06
2019-02-11T05:14:57.384Z,43.06
2019-02-11T05:15:56.764Z,43.07
2019-02-11T05:16:57.103Z,43.05
2019-02-11T05:17:57.532Z,43.06
2019-02-11T05:18:57.256Z,43.06
2019-02-11T05:19:57.279Z,43.03
2019-02-11T05:20:56.980Z,43.03
2019-02-11T05:21:56.780Z,43.02
2019-02-11T05:22:57.240Z,43.04
2019-02-11T05:23:56.806Z,43.02
2019-02-11T05:24:57.981Z,42.98
2019-02-11T05:25:56.959Z,43.05
2019-02-11T05:26:57.690Z,43
2019-02-11T05:27:57.249Z,43.03
2019-02-11T05:28:56.891Z,43.04
2019-02-11T05:29:57.788Z,43.01
2019-02-11T05:30:57.265Z,42.97
2019-02-11T05:31:57.311Z,43.04
2019-02-11T05:32:57.237Z,43.03
2019-02-11T05:33:56.856Z,42.97
2019-02-11T05:34:57.163Z,43.03
2019-02-11T05:35:57.471Z,42.97
2019-02-11T05:36:57.277Z,43.06
2019-02-11T05:37:56.892Z,42.99
2019-02-11T05:38:56.776Z,43.07
2019-02-11T05:39:56.969Z,42.99
2019-02-11T05:40:56.765Z,43.05
2019-02-11T05:41:57.058Z,43
2019-02-11T05:42:57.367Z,42.98
2019-02-11T05:43:56.801Z,42.96
2019-02-11T05:44:57.033Z,42.98
2019-02-11T05:45:57.130Z,42.99
2019-02-11T05:46:56.833Z,42.99
2019-02-11T05:47:57.409Z,42.99
2019-02-11T05:48:57.167Z,42.96
2019-02-11T05:49:57.412Z,42.99
2019-02-11T05:50:57.698Z,43
2019-02-11T05:51:56.780Z,42.98
2019-02-11T05:52:56.979Z,42.97
2019-02-11T05:53:56.808Z,42.99
2019-02-11T05:54:57.049Z,43.01
2019-02-11T05:55:57.093Z,42.95
2019-02-11T05:56:57.194Z,42.94
2019-02-11T05:57:57.268Z,42.95
2019-02-11T05:58:58.799Z,42.93
2019-02-11T05:59:57.619Z,42.94
2019-02-11T06:00:56.981Z,42.95
2019-02-11T06:01:57.286Z,43.13
2019-02-11T06:02:56.684Z,43.05
2019-02-11T06:03:57.021Z,43.01
2019-02-11T06:04:56.895Z,43.73
2019-02-11T06:05:57.323Z,43.43
2019-02-11T06:06:57.645Z,43.71
2019-02-11T06:07:57.965Z,43.47
2019-02-11T06:08:56.871Z,43.44
2019-02-11T06:09:56.849Z,43.46
2019-02-11T06:10:57.068Z,43.28
2019-02-11T06:11:57.006Z,43.34
2019-02-11T06:12:57.810Z,43.32
2019-02-11T06:13:56.642Z,43.33
2019-02-11T06:15:05.137Z,43.25
2019-02-11T06:15:57.377Z,43.19
2019-02-11T06:16:56.757Z,43.21
2019-02-11T06:17:57.125Z,43.28
2019-02-11T06:18:57.525Z,43.28
2019-02-11T06:19:56.879Z,43.32
2019-02-11T06:20:56.873Z,43.27
2019-02-11T06:21:57.648Z,43.18
2019-02-11T06:22:57.684Z,43.24
2019-02-11T06:23:57.810Z,43.53
2019-02-11T06:24:57.156Z,43.14
2019-02-11T06:25:56.941Z,43.07
2019-02-11T06:26:58.094Z,43.02
2019-02-11T06:27:58.638Z,42.94
2019-02-11T06:28:57.273Z,42.91
2019-02-11T06:29:58.576Z,42.92
2019-02-11T06:30:57.121Z,42.89
2019-02-11T06:31:57.174Z,42.91
2019-02-11T06:32:57.160Z,42.91
2019-02-11T06:33:57.438Z,42.89
2019-02-11T06:34:56.857Z,42.88
2019-02-11T06:35:56.943Z,42.86
2019-02-11T06:36:57.239Z,42.9
2019-02-11T06:37:56.875Z,42.79
2019-02-11T06:38:57.070Z,42.81
2019-02-11T06:39:56.932Z,42.84
2019-02-11T06:40:57.915Z,42.83
2019-02-11T06:41:57.451Z,42.81
2019-02-11T06:42:57.060Z,42.75
2019-02-11T06:43:57.006Z,42.77
2019-02-11T06:44:57.861Z,42.81
2019-02-11T06:45:56.978Z,42.76
2019-02-11T06:46:56.934Z,42.72
2019-02-11T06:47:56.901Z,42.71
2019-02-11T06:48:57.324Z,42.76
2019-02-11T06:49:56.758Z,42.77
2019-02-11T06:50:56.898Z,42.7
2019-02-11T06:51:57.554Z,42.7
2019-02-11T06:52:56.791Z,42.67
2019-02-11T06:53:56.888Z,42.71
2019-02-11T06:54:56.938Z,42.73
2019-02-11T06:55:56.964Z,42.72
2019-02-11T06:56:57.801Z,42.69
2019-02-11T06:57:57.045Z,42.73
2019-02-11T06:58:57.007Z,42.7
2019-02-11T06:59:56.869Z,42.71
2019-02-11T07:00:58.063Z,42.71
2019-02-11T07:01:57.039Z,42.7
2019-02-11T07:02:57.108Z,42.73
2019-02-11T07:03:56.804Z,42.7
2019-02-11T07:04:57.489Z,42.74
2019-02-11T07:05:56.835Z,42.73
2019-02-11T07:06:56.931Z,42.73
2019-02-11T07:07:58.777Z,42.74
2019-02-11T07:08:56.951Z,42.75
2019-02-11T07:09:57.264Z,42.75
2019-02-11T07:10:56.904Z,42.74
2019-02-11T07:11:57.115Z,42.76
2019-02-11T07:12:56.875Z,42.76
2019-02-11T07:13:57.309Z,42.73
2019-02-11T07:14:56.701Z,42.72
2019-02-11T07:15:56.758Z,42.73
2019-02-11T07:16:56.754Z,42.72
2019-02-11T07:17:56.816Z,42.75
2019-02-11T07:18:56.958Z,42.67
2019-02-11T07:19:56.715Z,42.76
2019-02-11T07:20:56.917Z,42.71
2019-02-11T07:21:57.623Z,42.74
2019-02-11T07:22:57.200Z,42.71
2019-02-11T07:23:57.028Z,42.7
2019-02-11T07:24:57.099Z,42.71
2019-02-11T07:25:56.964Z,42.7
2019-02-11T07:26:57.120Z,42.67
2019-02-11T07:27:57.474Z,42.73
2019-02-11T07:28:57.170Z,42.74
2019-02-11T07:29:57.013Z,42.71
2019-02-11T07:30:56.611Z,42.73
2019-02-11T07:31:56.892Z,42.72
2019-02-11T07:32:57.233Z,42.73
2019-02-11T07:33:56.886Z,42.72
2019-02-11T07:34:56.790Z,42.71
2019-02-11T07:35:57.185Z,42.67
2019-02-11T07:36:57.197Z,42.71
2019-02-11T07:37:56.736Z,42.72
2019-02-11T07:38:57.288Z,42.71
2019-02-11T07:39:57.394Z,42.71
2019-02-11T07:40:57.167Z,42.68
2019-02-11T07:41:57.354Z,42.68
2019-02-11T07:42:57.304Z,42.66
2019-02-11T07:43:56.876Z,42.71
2019-02-11T07:44:57.175Z,42.7
2019-02-11T07:45:56.764Z,42.62
2019-02-11T07:46:57.391Z,42.62
2019-02-11T07:47:56.733Z,42.57
2019-02-11T07:48:56.787Z,42.2
2019-02-11T07:49:58.742Z,42.03
2019-02-11T07:50:56.670Z,42.28
2019-02-11T07:51:57.238Z,42.13
2019-02-11T07:52:57.329Z,42.17
2019-02-11T07:53:57.030Z,42.07
2019-02-11T07:54:56.770Z,41.98
2019-02-11T07:55:57.381Z,41.87
2019-02-11T07:56:56.949Z,41.9
2019-02-11T07:57:57.521Z,42.08
2019-02-11T07:58:56.990Z,42.19
2019-02-11T07:59:57.701Z,42.14
2019-02-11T08:00:57.129Z,42.16
2019-02-11T08:01:57.383Z,42.08
2019-02-11T08:02:57.863Z,42.24
2019-02-11T08:03:57.443Z,42.21
2019-02-11T08:04:57.393Z,42.22
2019-02-11T08:05:56.881Z,42.25
2019-02-11T08:06:57.018Z,42.29
2019-02-11T08:07:57.718Z,42.31
2019-02-11T08:08:56.757Z,42.24
2019-02-11T08:09:57.289Z,42.2
2019-02-11T08:10:56.821Z,42.3
2019-02-11T08:11:57.360Z,42.26
2019-02-11T08:12:56.789Z,42.31
2019-02-11T08:13:56.812Z,42.36
2019-02-11T08:14:56.916Z,42.32
2019-02-11T08:15:57.742Z,42.34
2019-02-11T08:16:56.872Z,42.32
2019-02-11T08:17:58.528Z,42.34
2019-02-11T08:18:57.053Z,42.36
2019-02-11T08:19:58.754Z,42.35
2019-02-11T08:20:57.495Z,42.36
2019-02-11T08:21:57.859Z,42.36
2019-02-11T08:22:57.112Z,42.36
2019-02-11T08:23:56.921Z,42.32
2019-02-11T08:24:57.531Z,42.32
2019-02-11T08:25:57.223Z,42.32
2019-02-11T08:26:57.046Z,42.33
2019-02-11T08:27:56.834Z,42.33
2019-02-11T08:28:57.126Z,42.33
2019-02-11T08:29:57.162Z,42.31
2019-02-11T08:30:57.078Z,42.35
2019-02-11T08:31:56.937Z,42.32
2019-02-11T08:32:57.462Z,42.34
2019-02-11T08:33:58.196Z,42.35
2019-02-11T08:34:57.679Z,42.3
2019-02-11T08:35:57.239Z,42.34
2019-02-11T08:36:57.080Z,42.38
2019-02-11T08:37:58.590Z,42.31
2019-02-11T08:38:57.035Z,42.35
2019-02-11T08:39:57.314Z,42.31
2019-02-11T08:40:56.800Z,42.35
2019-02-11T08:41:56.915Z,42.29
2019-02-11T08:42:57.841Z,42.35
2019-02-11T08:43:58.683Z,42.35
2019-02-11T08:44:57.240Z,42.31
2019-02-11T08:45:57.795Z,42.29
2019-02-11T08:46:56.982Z,42.31
2019-02-11T08:47:56.820Z,42.34
2019-02-11T08:48:57.544Z,42.31
2019-02-11T08:49:56.757Z,42.31
2019-02-11T08:50:56.707Z,42.35
2019-02-11T08:51:57.532Z,42.32
2019-02-11T08:52:57.300Z,42.37
2019-02-11T08:53:57.562Z,42.34
2019-02-11T08:54:57.592Z,42.36
2019-02-11T08:55:57.228Z,42.36
2019-02-11T08:56:57.799Z,42.31
2019-02-11T08:57:56.978Z,42.32
2019-02-11T08:58:56.813Z,42.36
2019-02-11T08:59:57.489Z,42.39
2019-02-11T09:00:57.464Z,42.39
2019-02-11T09:01:58.566Z,42.36
2019-02-11T09:02:58.655Z,42.32
2019-02-11T09:03:57.303Z,42.35
2019-02-11T09:04:56.741Z,42.35
2019-02-11T09:05:56.824Z,42.36
2019-02-11T09:06:58.780Z,42.35
2019-02-11T09:07:57.241Z,42.39
2019-02-11T09:08:57.447Z,42.36
2019-02-11T09:09:56.818Z,42.41
2019-02-11T09:10:57.044Z,42.39
2019-02-11T09:11:57.031Z,42.37
2019-02-11T09:12:57.151Z,42.39
2019-02-11T09:13:56.984Z,42.39
2019-02-11T09:14:56.918Z,42.41
2019-02-11T09:15:56.612Z,42.39
2019-02-11T09:16:57.300Z,42.37
2019-02-11T09:17:57.523Z,42.43
2019-02-11T09:18:56.983Z,42.39
2019-02-11T09:19:57.308Z,42.39
2019-02-11T09:20:57.204Z,42.41
2019-02-11T09:21:57.062Z,42.45
2019-02-11T09:22:56.810Z,42.44
2019-02-11T09:23:56.829Z,42.4
2019-02-11T09:24:57.055Z,42.44
2019-02-11T09:25:57.768Z,42.41
2019-02-11T09:26:57.068Z,42.4
2019-02-11T09:27:57.066Z,42.4
2019-02-11T09:28:56.756Z,42.41
2019-02-11T09:29:57.072Z,42.38
2019-02-11T09:30:57.395Z,42.42
2019-02-11T09:31:57.629Z,42.4
2019-02-11T09:32:57.092Z,42.39
2019-02-11T09:33:57.002Z,42.45
2019-02-11T09:34:57.696Z,42.44
2019-02-11T09:35:57.514Z,42.41
2019-02-11T09:36:57.873Z,42.38
2019-02-11T09:37:56.876Z,42.44
2019-02-11T09:38:56.862Z,42.42
2019-02-11T09:39:57.090Z,42.4
2019-02-11T09:40:57.260Z,42.45
2019-02-11T09:41:57.527Z,42.41
2019-02-11T09:42:57.006Z,42.42
2019-02-11T09:43:57.100Z,42.4
2019-02-11T09:44:57.393Z,42.45
2019-02-11T09:46:04.454Z,42.78
2019-02-11T09:46:57.634Z,42.94
2019-02-11T09:47:57.118Z,43.18
2019-02-11T09:48:57.225Z,43.29
2019-02-11T09:49:57.029Z,43.37
2019-02-11T09:50:56.844Z,43.48
2019-02-11T09:51:57.142Z,43.43
2019-02-11T09:52:57.044Z,43.38
2019-02-11T09:53:57.272Z,43.43
2019-02-11T09:54:56.775Z,43.35
2019-02-11T09:55:57.274Z,43.51
2019-02-11T09:56:56.791Z,43.4
2019-02-11T09:57:56.927Z,43.37
2019-02-11T09:58:57.041Z,43.36
2019-02-11T09:59:57.513Z,43.44
2019-02-11T10:00:57.519Z,43.45
2019-02-11T10:01:57.184Z,43.47
2019-02-11T10:02:57.517Z,43.4
2019-02-11T10:03:56.695Z,43.57
2019-02-11T10:04:57.730Z,43.41
2019-02-11T10:05:57.156Z,43.32
2019-02-11T10:06:57.142Z,43.41
2019-02-11T10:07:57.147Z,43.28
2019-02-11T10:08:57.168Z,43.3
2019-02-11T10:09:57.031Z,43.34
2019-02-11T10:10:57.477Z,43.23
2019-02-11T10:11:57.267Z,43.38
2019-02-11T10:12:57.281Z,43.33
2019-02-11T10:13:57.001Z,43.34
2019-02-11T10:14:56.850Z,43.11
2019-02-11T10:15:57.010Z,43.36
2019-02-11T10:16:57.218Z,41.29
2019-02-11T10:17:57.196Z,41.76
2019-02-11T10:18:56.686Z,41.63
2019-02-11T10:19:56.846Z,41.5
2019-02-11T10:20:56.734Z,42.26
2019-02-11T10:21:56.651Z,42.17
2019-02-11T10:22:57.364Z,42.36
2019-02-11T10:23:56.867Z,42.59
2019-02-11T10:24:57.166Z,42.8
2019-02-11T10:25:56.914Z,42.65
2019-02-11T10:26:56.596Z,42.67
2019-02-11T10:27:57.240Z,42.53
2019-02-11T10:28:56.815Z,42.94
2019-02-11T10:29:57.000Z,42.86
2019-02-11T10:30:57.328Z,43.18
2019-02-11T10:31:58.548Z,42.52
2019-02-11T10:32:58.600Z,43.05
2019-02-11T10:33:57.117Z,43.08
2019-02-11T10:34:56.982Z,43.06
2019-02-11T10:35:56.860Z,43.25
2019-02-11T10:36:56.938Z,43.05
2019-02-11T10:37:57.111Z,42.99
2019-02-11T10:38:56.725Z,43.24
2019-02-11T10:39:56.934Z,43.27
2019-02-11T10:40:56.883Z,43.04
2019-02-11T10:41:57.302Z,42.98
2019-02-11T10:42:57.194Z,43
2019-02-11T10:43:57.679Z,42.95
2019-02-11T10:44:57.851Z,43.2
2019-02-11T10:45:56.967Z,43.03
2019-02-11T10:46:56.794Z,42.94
2019-02-11T10:47:57.111Z,42.83
2019-02-11T10:48:56.903Z,43.24
2019-02-11T10:49:56.750Z,42.92
2019-02-11T10:50:57.056Z,42.96
2019-02-11T10:51:56.961Z,42.86
2019-02-11T10:52:57.039Z,42.84
2019-02-11T10:53:57.817Z,42.96
2019-02-11T10:54:57.084Z,42.85
2019-02-11T10:55:56.837Z,42.96
2019-02-11T10:56:58.564Z,42.83
2019-02-11T10:57:57.089Z,42.83
2019-02-11T10:58:57.202Z,43.14
2019-02-11T10:59:57.024Z,42.71
2019-02-11T11:00:57.957Z,42.79
2019-02-11T11:01:56.816Z,42.58
2019-02-11T11:02:56.788Z,42.62
2019-02-11T11:03:56.825Z,42.77
2019-02-11T11:04:56.957Z,42.77
2019-02-11T11:05:57.490Z,42.84
2019-02-11T11:06:56.645Z,43.01
2019-02-11T11:07:56.694Z,42.82
2019-02-11T11:08:56.751Z,42.96
2019-02-11T11:09:56.853Z,42.81
2019-02-11T11:10:57.210Z,43.02
2019-02-11T11:11:56.653Z,42.89
2019-02-11T11:12:56.547Z,42.88
2019-02-11T11:13:56.707Z,42.87
2019-02-11T11:14:56.908Z,42.86
2019-02-11T11:15:56.779Z,42.79
2019-02-11T11:16:57.149Z,42.67
2019-02-11T11:17:56.910Z,42.66
2019-02-11T11:18:57.133Z,42.74
2019-02-11T11:19:56.853Z,42.57
2019-02-11T11:20:58.491Z,42.72
2019-02-11T11:21:57.163Z,42.7
2019-02-11T11:22:57.276Z,42.68
2019-02-11T11:23:58.411Z,42.64
2019-02-11T11:24:57.067Z,42.63
2019-02-11T11:25:56.976Z,42.65
2019-02-11T11:26:57.100Z,42.63
2019-02-11T11:27:57.094Z,42.65
2019-02-11T11:28:57.271Z,42.66
2019-02-11T11:29:56.920Z,42.58
2019-02-11T11:30:57.211Z,42.6
2019-02-11T11:31:58.225Z,42.6
2019-02-11T11:32:57.939Z,42.63
2019-02-11T11:33:56.488Z,42.56
2019-02-11T11:34:56.770Z,42.62
2019-02-11T11:35:56.713Z,42.69
2019-02-11T11:36:56.967Z,42.82
2019-02-11T11:37:57.410Z,42.79
2019-02-11T11:38:57.108Z,42.62
2019-02-11T11:39:57.101Z,42.64
2019-02-11T11:40:57.095Z,42.75
2019-02-11T11:41:57.001Z,42.69
2019-02-11T11:42:57.007Z,42.72
2019-02-11T11:43:56.774Z,42.75
2019-02-11T11:44:57.354Z,42.55
2019-02-11T11:45:56.932Z,42.39
2019-02-11T11:46:56.933Z,42.37
2019-02-11T11:47:56.852Z,42.36
2019-02-11T11:48:57.054Z,42.45
2019-02-11T11:49:57.050Z,42.37
2019-02-11T11:50:56.973Z,42.41
2019-02-11T11:51:57.008Z,42.44
2019-02-11T11:52:57.083Z,42.49
2019-02-11T11:53:56.809Z,42.69
2019-02-11T11:54:57.014Z,42.83
2019-02-11T11:56:02.430Z,42.94
2019-02-11T11:56:59.993Z,42.91
2019-02-11T11:57:57.129Z,42.89
2019-02-11T11:58:57.149Z,42.74
2019-02-11T11:59:57.027Z,42.82
2019-02-11T12:00:57.207Z,42.79
2019-02-11T12:01:57.648Z,42.77
2019-02-11T12:03:06.888Z,42.78
2019-02-11T12:03:58.904Z,42.7
2019-02-11T12:04:57.174Z,42.72
2019-02-11T12:05:57.372Z,42.72
2019-02-11T12:06:57.204Z,42.71
2019-02-11T12:07:56.899Z,42.48
2019-02-11T12:08:59.944Z,42.76
2019-02-11T12:09:57.289Z,42.33
2019-02-11T12:10:56.999Z,42.3
2019-02-11T12:11:57.027Z,42.32
2019-02-11T12:12:56.838Z,42.35
2019-02-11T12:13:57.463Z,42.29
2019-02-11T12:14:56.740Z,42.31
2019-02-11T12:15:57.000Z,42.26
2019-02-11T12:17:03.883Z,42.3
2019-02-11T12:17:57.807Z,42.23
2019-02-11T12:18:57.498Z,42.35
2019-02-11T12:19:58.821Z,42.31
2019-02-11T12:20:57.581Z,42.35
2019-02-11T12:21:56.923Z,42.27
2019-02-11T12:22:57.133Z,42.28
2019-02-11T12:23:58.652Z,42.31
2019-02-11T12:24:56.918Z,42.32
2019-02-11T12:25:56.770Z,42.31
2019-02-11T12:26:57.180Z,42.29
2019-02-11T12:27:57.139Z,42.35
2019-02-11T12:28:56.929Z,42.28
2019-02-11T12:29:56.688Z,42.32
2019-02-11T12:30:57.270Z,42.32
2019-02-11T12:31:57.403Z,42.29
2019-02-11T12:32:57.467Z,42.29
2019-02-11T12:33:57.025Z,42.27
2019-02-11T12:34:56.505Z,42.29
2019-02-11T12:35:57.744Z,42.29
2019-02-11T12:36:57.730Z,42.31
2019-02-11T12:37:56.842Z,42.32
2019-02-11T12:38:57.225Z,42.31
2019-02-11T12:39:56.935Z,42.41
2019-02-11T12:40:56.902Z,42.4
2019-02-11T12:41:57.351Z,42.43
2019-02-11T12:42:56.776Z,42.4
2019-02-11T12:43:57.362Z,42.4
2019-02-11T12:44:57.152Z,42.44
2019-02-11T12:45:57.445Z,42.35
2019-02-11T12:47:56.829Z,42.31
2019-02-11T12:48:58.579Z,42.29
2019-02-11T12:49:56.940Z,42.35
2019-02-11T12:50:57.287Z,42.31
2019-02-11T12:51:56.731Z,42.24
2019-02-11T12:52:56.770Z,42.25
2019-02-11T12:53:57.153Z,42.14
2019-02-11T12:54:56.910Z,42.3
2019-02-11T12:56:03.906Z,42.62
2019-02-11T12:56:57.281Z,42.46